sensor_id;sensor_type;location;lat;lon;timestamp;temperature;humidity
39503;DHT22;26970;49.900;10.774;2022-10-30T00:02:25;14.80;99.90
39503;DHT22;26970;49.900;10.774;2022-10-30T00:04:50;13.70;99.90
39503;DHT22;26970;49.900;10.774;2022-10-30T00:07:16;14.50;99.90
39503;DHT22;26970;49.900;10.774;2022-10-30T00:09:41;13.40;99.90
39503;DHT22;26970;49.900;10.774;2022-10-30T00:12:07;14.20;99.90
39503;DHT22;26970;49.900;10.774;2022-10-30T00:14:33;14.80;99.90
39503;DHT22;26970;49.900;10.774;2022-10-30T00:16:58;13.40;99.90
39503;DHT22;26970;49.900;10.774;2022-10-30T00:19:24;14.10;99.90
39503;DHT22;26970;49.900;10.774;2022-10-30T00:21:49;13.50;99.90
39503;DHT22;26970;49.900;10.774;2022-10-30T00:24:15;13.40;99.90
39503;DHT22;26970;49.900;10.774;2022-10-30T00:26:40;13.40;99.90
39503;DHT22;26970;49.900;10.774;2022-10-30T00:29:06;13.30;99.90
39503;DHT22;26970;49.900;10.774;2022-10-30T00:31:32;14.10;99.90
39503;DHT22;26970;49.900;10.774;2022-10-30T00:33:57;13.30;99.90
39503;DHT22;26970;49.900;10.774;2022-10-30T00:36:23;13.40;99.90
39503;DHT22;26970;49.900;10.774;2022-10-30T00:38:49;13.30;99.90
39503;DHT22;26970;49.900;10.774;2022-10-30T00:41:16;14.50;99.90
39503;DHT22;26970;49.900;10.774;2022-10-30T00:43:42;13.20;99.90
39503;DHT22;26970;49.900;10.774;2022-10-30T00:49:12;13.40;99.90
39503;DHT22;26970;49.900;10.774;2022-10-30T00:51:45;14.60;99.90
39503;DHT22;26970;49.900;10.774;2022-10-30T00:54:11;13.40;99.90
39503;DHT22;26970;49.900;10.774;2022-10-30T00:56:38;15.00;99.90
39503;DHT22;26970;49.900;10.774;2022-10-30T00:59:09;14.40;99.90
39503;DHT22;26970;49.900;10.774;2022-10-30T01:01:41;13.50;99.90
39503;DHT22;26970;49.900;10.774;2022-10-30T01:04:07;13.60;99.90
39503;DHT22;26970;49.900;10.774;2022-10-30T01:06:36;14.00;99.90
39503;DHT22;26970;49.900;10.774;2022-10-30T01:09:03;13.60;99.90
39503;DHT22;26970;49.900;10.774;2022-10-30T01:11:29;14.30;99.90
39503;DHT22;26970;49.900;10.774;2022-10-30T01:26:08;13.70;99.90
39503;DHT22;26970;49.900;10.774;2022-10-30T01:32:10;13.60;99.90
39503;DHT22;26970;49.900;10.774;2022-10-30T01:37:37;13.50;99.90
39503;DHT22;26970;49.900;10.774;2022-10-30T01:40:08;13.50;99.90
39503;DHT22;26970;49.900;10.774;2022-10-30T01:42:42;13.50;99.90
39503;DHT22;26970;49.900;10.774;2022-10-30T01:45:13;14.10;99.90
39503;DHT22;26970;49.900;10.774;2022-10-30T01:59:58;13.50;99.90
39503;DHT22;26970;49.900;10.774;2022-10-30T02:01:52;13.50;99.90
39503;DHT22;26970;49.900;10.774;2022-10-30T02:04:18;13.60;99.90
39503;DHT22;26970;49.900;10.774;2022-10-30T02:06:44;14.20;99.90
39503;DHT22;26970;49.900;10.774;2022-10-30T02:09:10;15.30;99.90
39503;DHT22;26970;49.900;10.774;2022-10-30T02:11:36;13.80;99.90
39503;DHT22;26970;49.900;10.774;2022-10-30T02:14:05;13.80;99.90
39503;DHT22;26970;49.900;10.774;2022-10-30T02:16:34;14.30;99.90
39503;DHT22;26970;49.900;10.774;2022-10-30T02:19:01;14.10;99.90
39503;DHT22;26970;49.900;10.774;2022-10-30T02:21:27;13.70;99.90
39503;DHT22;26970;49.900;10.774;2022-10-30T02:23:53;14.70;99.90
39503;DHT22;26970;49.900;10.774;2022-10-30T02:26:18;14.70;99.90
39503;DHT22;26970;49.900;10.774;2022-10-30T02:28:44;13.60;99.90
39503;DHT22;26970;49.900;10.774;2022-10-30T02:31:09;13.60;99.90
39503;DHT22;26970;49.900;10.774;2022-10-30T02:33:35;14.90;99.90
39503;DHT22;26970;49.900;10.774;2022-10-30T02:36:00;14.20;99.90
39503;DHT22;26970;49.900;10.774;2022-10-30T02:38:26;13.40;99.90
39503;DHT22;26970;49.900;10.774;2022-10-30T02:40:51;13.30;99.90
39503;DHT22;26970;49.900;10.774;2022-10-30T02:43:17;14.30;99.90
39503;DHT22;26970;49.900;10.774;2022-10-30T02:45:42;13.20;99.90
39503;DHT22;26970;49.900;10.774;2022-10-30T02:48:08;13.20;99.90
39503;DHT22;26970;49.900;10.774;2022-10-30T02:50:34;13.10;99.90
39503;DHT22;26970;49.900;10.774;2022-10-30T02:52:59;13.20;99.90
39503;DHT22;26970;49.900;10.774;2022-10-30T02:55:25;13.00;99.90
39503;DHT22;26970;49.900;10.774;2022-10-30T02:57:50;13.00;99.90
39503;DHT22;26970;49.900;10.774;2022-10-30T03:00:16;13.00;99.90
39503;DHT22;26970;49.900;10.774;2022-10-30T03:02:41;12.90;99.90
39503;DHT22;26970;49.900;10.774;2022-10-30T03:05:07;12.90;99.90
39503;DHT22;26970;49.900;10.774;2022-10-30T03:07:33;12.90;99.90
39503;DHT22;26970;49.900;10.774;2022-10-30T03:09:58;14.30;99.90
39503;DHT22;26970;49.900;10.774;2022-10-30T03:12:24;12.90;99.90
39503;DHT22;26970;49.900;10.774;2022-10-30T03:14:49;12.80;99.90
39503;DHT22;26970;49.900;10.774;2022-10-30T03:17:15;12.80;99.90
39503;DHT22;26970;49.900;10.774;2022-10-30T03:19:40;12.80;99.90
39503;DHT22;26970;49.900;10.774;2022-10-30T03:22:06;12.80;99.90
39503;DHT22;26970;49.900;10.774;2022-10-30T03:24:32;12.80;99.90
39503;DHT22;26970;49.900;10.774;2022-10-30T03:26:57;12.80;99.90
39503;DHT22;26970;49.900;10.774;2022-10-30T03:29:23;12.90;99.90
39503;DHT22;26970;49.900;10.774;2022-10-30T03:31:48;13.00;99.90
39503;DHT22;26970;49.900;10.774;2022-10-30T03:34:14;13.00;99.90
39503;DHT22;26970;49.900;10.774;2022-10-30T03:36:40;12.90;99.90
39503;DHT22;26970;49.900;10.774;2022-10-30T03:39:05;12.80;99.90
39503;DHT22;26970;49.900;10.774;2022-10-30T03:41:31;13.30;99.90
39503;DHT22;26970;49.900;10.774;2022-10-30T03:43:56;12.80;99.90
39503;DHT22;26970;49.900;10.774;2022-10-30T03:46:22;13.60;99.90
39503;DHT22;26970;49.900;10.774;2022-10-30T03:48:48;12.70;99.90
39503;DHT22;26970;49.900;10.774;2022-10-30T03:51:15;13.80;99.90
39503;DHT22;26970;49.900;10.774;2022-10-30T03:53:41;12.50;99.90
39503;DHT22;26970;49.900;10.774;2022-10-30T03:56:06;12.50;99.90
39503;DHT22;26970;49.900;10.774;2022-10-30T03:58:32;12.50;99.90
39503;DHT22;26970;49.900;10.774;2022-10-30T04:01:02;12.40;99.90
39503;DHT22;26970;49.900;10.774;2022-10-30T04:03:28;12.40;99.90
39503;DHT22;26970;49.900;10.774;2022-10-30T04:05:54;12.40;99.90
39503;DHT22;26970;49.900;10.774;2022-10-30T04:08:19;12.40;99.90
39503;DHT22;26970;49.900;10.774;2022-10-30T04:10:45;12.60;99.90
39503;DHT22;26970;49.900;10.774;2022-10-30T04:13:13;12.50;99.90
39503;DHT22;26970;49.900;10.774;2022-10-30T04:15:39;12.60;99.90
39503;DHT22;26970;49.900;10.774;2022-10-30T04:18:06;12.60;99.90
39503;DHT22;26970;49.900;10.774;2022-10-30T04:20:32;12.50;99.90
39503;DHT22;26970;49.900;10.774;2022-10-30T04:23:03;12.40;99.90
39503;DHT22;26970;49.900;10.774;2022-10-30T04:25:30;12.90;99.90
39503;DHT22;26970;49.900;10.774;2022-10-30T04:27:57;12.50;99.90
39503;DHT22;26970;49.900;10.774;2022-10-30T04:30:23;12.80;99.90
39503;DHT22;26970;49.900;10.774;2022-10-30T04:32:54;12.90;99.90
39503;DHT22;26970;49.900;10.774;2022-10-30T04:35:23;12.90;99.90
39503;DHT22;26970;49.900;10.774;2022-10-30T04:37:56;14.40;99.90
39503;DHT22;26970;49.900;10.774;2022-10-30T04:40:23;12.70;99.90
39503;DHT22;26970;49.900;10.774;2022-10-30T04:42:49;12.30;99.90
39503;DHT22;26970;49.900;10.774;2022-10-30T04:45:15;12.00;99.90
39503;DHT22;26970;49.900;10.774;2022-10-30T04:47:41;12.70;99.90
39503;DHT22;26970;49.900;10.774;2022-10-30T04:50:07;13.40;99.90
39503;DHT22;26970;49.900;10.774;2022-10-30T04:52:33;11.90;99.90
39503;DHT22;26970;49.900;10.774;2022-10-30T04:54:59;12.00;99.90
39503;DHT22;26970;49.900;10.774;2022-10-30T04:57:24;12.00;99.90
39503;DHT22;26970;49.900;10.774;2022-10-30T04:59:50;11.90;99.90
39503;DHT22;26970;49.900;10.774;2022-10-30T05:02:15;11.80;99.90
39503;DHT22;26970;49.900;10.774;2022-10-30T05:04:44;12.90;99.90
39503;DHT22;26970;49.900;10.774;2022-10-30T05:07:10;12.70;99.90
39503;DHT22;26970;49.900;10.774;2022-10-30T05:09:35;11.50;99.90
39503;DHT22;26970;49.900;10.774;2022-10-30T05:12:01;11.50;99.90
39503;DHT22;26970;49.900;10.774;2022-10-30T05:14:31;11.50;99.90
39503;DHT22;26970;49.900;10.774;2022-10-30T05:16:57;11.50;99.90
39503;DHT22;26970;49.900;10.774;2022-10-30T05:19:23;11.50;99.90
39503;DHT22;26970;49.900;10.774;2022-10-30T05:21:49;13.10;99.90
39503;DHT22;26970;49.900;10.774;2022-10-30T05:24:15;11.40;99.90
39503;DHT22;26970;49.900;10.774;2022-10-30T05:26:40;11.30;99.90
39503;DHT22;26970;49.900;10.774;2022-10-30T05:29:06;11.30;99.90
39503;DHT22;26970;49.900;10.774;2022-10-30T05:31:31;12.10;99.90
39503;DHT22;26970;49.900;10.774;2022-10-30T05:33:57;11.20;99.90
39503;DHT22;26970;49.900;10.774;2022-10-30T05:36:22;12.90;99.90
39503;DHT22;26970;49.900;10.774;2022-10-30T05:38:48;11.80;99.90
39503;DHT22;26970;49.900;10.774;2022-10-30T05:41:13;11.60;99.90
39503;DHT22;26970;49.900;10.774;2022-10-30T05:43:39;13.10;99.90
39503;DHT22;26970;49.900;10.774;2022-10-30T05:46:05;11.70;99.90
39503;DHT22;26970;49.900;10.774;2022-10-30T05:48:30;11.50;99.90
39503;DHT22;26970;49.900;10.774;2022-10-30T05:50:56;11.50;99.90
39503;DHT22;26970;49.900;10.774;2022-10-30T05:53:22;11.50;99.90
39503;DHT22;26970;49.900;10.774;2022-10-30T05:55:48;11.60;99.90
39503;DHT22;26970;49.900;10.774;2022-10-30T05:58:13;11.60;99.90
39503;DHT22;26970;49.900;10.774;2022-10-30T06:00:39;11.70;99.90
39503;DHT22;26970;49.900;10.774;2022-10-30T06:03:08;11.80;99.90
39503;DHT22;26970;49.900;10.774;2022-10-30T06:05:35;12.00;99.90
39503;DHT22;26970;49.900;10.774;2022-10-30T06:08:02;12.90;99.90
39503;DHT22;26970;49.900;10.774;2022-10-30T06:10:28;12.30;99.90
39503;DHT22;26970;49.900;10.774;2022-10-30T06:12:55;12.10;99.90
39503;DHT22;26970;49.900;10.774;2022-10-30T06:15:21;12.00;99.90
39503;DHT22;26970;49.900;10.774;2022-10-30T06:17:47;12.00;99.90
39503;DHT22;26970;49.900;10.774;2022-10-30T06:20:13;12.10;99.90
39503;DHT22;26970;49.900;10.774;2022-10-30T06:22:39;12.10;99.90
39503;DHT22;26970;49.900;10.774;2022-10-30T06:25:05;12.10;99.90
39503;DHT22;26970;49.900;10.774;2022-10-30T06:27:33;12.30;99.90
39503;DHT22;26970;49.900;10.774;2022-10-30T06:29:59;12.30;99.90
39503;DHT22;26970;49.900;10.774;2022-10-30T06:32:24;12.30;99.90
39503;DHT22;26970;49.900;10.774;2022-10-30T06:34:50;12.50;99.90
39503;DHT22;26970;49.900;10.774;2022-10-30T06:37:16;12.10;99.90
39503;DHT22;26970;49.900;10.774;2022-10-30T06:39:41;12.50;99.90
39503;DHT22;26970;49.900;10.774;2022-10-30T06:42:07;11.90;99.90
39503;DHT22;26970;49.900;10.774;2022-10-30T06:44:33;12.10;99.90
39503;DHT22;26970;49.900;10.774;2022-10-30T06:46:59;11.60;99.90
39503;DHT22;26970;49.900;10.774;2022-10-30T06:49:25;11.50;99.90
39503;DHT22;26970;49.900;10.774;2022-10-30T06:51:50;11.50;99.90
39503;DHT22;26970;49.900;10.774;2022-10-30T06:54:16;11.50;99.90
39503;DHT22;26970;49.900;10.774;2022-10-30T06:56:41;12.20;99.90
39503;DHT22;26970;49.900;10.774;2022-10-30T06:59:08;11.30;99.90
39503;DHT22;26970;49.900;10.774;2022-10-30T07:01:34;11.40;99.90
39503;DHT22;26970;49.900;10.774;2022-10-30T07:03:59;11.40;99.90
39503;DHT22;26970;49.900;10.774;2022-10-30T07:06:25;11.40;99.90
39503;DHT22;26970;49.900;10.774;2022-10-30T07:08:50;11.40;99.90
39503;DHT22;26970;49.900;10.774;2022-10-30T07:11:16;11.80;99.90
39503;DHT22;26970;49.900;10.774;2022-10-30T07:13:41;12.00;99.90
39503;DHT22;26970;49.900;10.774;2022-10-30T07:16:07;11.40;99.90
39503;DHT22;26970;49.900;10.774;2022-10-30T07:18:32;11.60;99.90
39503;DHT22;26970;49.900;10.774;2022-10-30T07:20:58;11.50;99.90
39503;DHT22;26970;49.900;10.774;2022-10-30T07:23:24;11.60;99.90
39503;DHT22;26970;49.900;10.774;2022-10-30T07:25:49;11.70;99.90
39503;DHT22;26970;49.900;10.774;2022-10-30T07:28:15;11.90;99.90
39503;DHT22;26970;49.900;10.774;2022-10-30T07:30:40;11.90;99.90
39503;DHT22;26970;49.900;10.774;2022-10-30T07:33:08;13.00;99.90
39503;DHT22;26970;49.900;10.774;2022-10-30T07:35:35;13.30;99.90
39503;DHT22;26970;49.900;10.774;2022-10-30T07:38:10;11.90;99.90
39503;DHT22;26970;49.900;10.774;2022-10-30T07:40:35;11.90;99.90
39503;DHT22;26970;49.900;10.774;2022-10-30T07:43:02;11.90;99.90
39503;DHT22;26970;49.900;10.774;2022-10-30T07:45:28;12.00;99.90
39503;DHT22;26970;49.900;10.774;2022-10-30T07:47:54;12.20;99.90
39503;DHT22;26970;49.900;10.774;2022-10-30T07:50:20;12.40;99.90
39503;DHT22;26970;49.900;10.774;2022-10-30T07:52:46;12.60;99.90
39503;DHT22;26970;49.900;10.774;2022-10-30T07:55:12;12.80;99.90
39503;DHT22;26970;49.900;10.774;2022-10-30T07:57:41;13.00;99.90
39503;DHT22;26970;49.900;10.774;2022-10-30T08:00:09;13.10;99.90
39503;DHT22;26970;49.900;10.774;2022-10-30T08:02:35;13.30;99.90
39503;DHT22;26970;49.900;10.774;2022-10-30T08:05:01;13.40;99.90
39503;DHT22;26970;49.900;10.774;2022-10-30T08:07:35;13.50;99.90
39503;DHT22;26970;49.900;10.774;2022-10-30T08:10:02;13.90;99.90
39503;DHT22;26970;49.900;10.774;2022-10-30T08:12:28;13.60;99.90
39503;DHT22;26970;49.900;10.774;2022-10-30T08:14:53;13.70;99.90
39503;DHT22;26970;49.900;10.774;2022-10-30T08:17:20;13.80;99.90
39503;DHT22;26970;49.900;10.774;2022-10-30T08:19:46;14.20;99.90
39503;DHT22;26970;49.900;10.774;2022-10-30T08:22:12;15.60;99.90
39503;DHT22;26970;49.900;10.774;2022-10-30T08:24:38;14.00;99.90
39503;DHT22;26970;49.900;10.774;2022-10-30T08:27:04;14.80;99.90
39503;DHT22;26970;49.900;10.774;2022-10-30T08:29:30;14.20;99.90
39503;DHT22;26970;49.900;10.774;2022-10-30T08:31:56;14.30;99.90
39503;DHT22;26970;49.900;10.774;2022-10-30T08:34:22;15.40;99.90
39503;DHT22;26970;49.900;10.774;2022-10-30T08:36:51;14.40;99.90
39503;DHT22;26970;49.900;10.774;2022-10-30T08:39:17;14.30;99.90
39503;DHT22;26970;49.900;10.774;2022-10-30T08:41:43;14.30;99.90
39503;DHT22;26970;49.900;10.774;2022-10-30T08:44:08;14.40;99.90
39503;DHT22;26970;49.900;10.774;2022-10-30T08:46:34;14.40;99.90
39503;DHT22;26970;49.900;10.774;2022-10-30T08:49:00;14.40;99.90
39503;DHT22;26970;49.900;10.774;2022-10-30T08:51:26;14.50;99.90
39503;DHT22;26970;49.900;10.774;2022-10-30T08:53:51;14.60;99.90
39503;DHT22;26970;49.900;10.774;2022-10-30T08:56:17;14.60;99.90
39503;DHT22;26970;49.900;10.774;2022-10-30T08:58:43;14.60;99.90
39503;DHT22;26970;49.900;10.774;2022-10-30T09:01:08;16.00;99.90
39503;DHT22;26970;49.900;10.774;2022-10-30T09:03:34;14.80;99.90
39503;DHT22;26970;49.900;10.774;2022-10-30T09:06:00;14.90;99.90
39503;DHT22;26970;49.900;10.774;2022-10-30T09:08:26;14.90;99.90
39503;DHT22;26970;49.900;10.774;2022-10-30T09:10:56;15.00;99.90
39503;DHT22;26970;49.900;10.774;2022-10-30T09:13:23;15.00;99.90
39503;DHT22;26970;49.900;10.774;2022-10-30T09:15:49;15.30;99.90
39503;DHT22;26970;49.900;10.774;2022-10-30T09:18:14;15.10;99.90
39503;DHT22;26970;49.900;10.774;2022-10-30T09:20:40;15.20;99.90
39503;DHT22;26970;49.900;10.774;2022-10-30T09:23:05;15.50;99.90
39503;DHT22;26970;49.900;10.774;2022-10-30T09:25:31;15.40;99.90
39503;DHT22;26970;49.900;10.774;2022-10-30T09:27:56;15.40;99.90
39503;DHT22;26970;49.900;10.774;2022-10-30T09:30:22;15.50;99.90
39503;DHT22;26970;49.900;10.774;2022-10-30T09:32:56;15.50;99.90
39503;DHT22;26970;49.900;10.774;2022-10-30T09:35:22;16.30;99.90
39503;DHT22;26970;49.900;10.774;2022-10-30T09:37:47;15.60;99.90
39503;DHT22;26970;49.900;10.774;2022-10-30T09:40:32;15.70;99.90
39503;DHT22;26970;49.900;10.774;2022-10-30T09:45:47;15.90;99.90
39503;DHT22;26970;49.900;10.774;2022-10-30T09:51:00;16.10;99.90
39503;DHT22;26970;49.900;10.774;2022-10-30T09:53:44;16.20;99.90
39503;DHT22;26970;49.900;10.774;2022-10-30T09:56:58;17.10;99.90
39503;DHT22;26970;49.900;10.774;2022-10-30T10:04:34;16.50;99.90
39503;DHT22;26970;49.900;10.774;2022-10-30T10:07:36;16.50;99.90
39503;DHT22;26970;49.900;10.774;2022-10-30T10:10:05;16.60;99.90
39503;DHT22;26970;49.900;10.774;2022-10-30T10:12:42;16.70;99.90
39503;DHT22;26970;49.900;10.774;2022-10-30T10:15:19;16.90;99.90
39503;DHT22;26970;49.900;10.774;2022-10-30T10:17:46;16.90;99.90
39503;DHT22;26970;49.900;10.774;2022-10-30T10:20:29;17.00;99.90
39503;DHT22;26970;49.900;10.774;2022-10-30T10:22:59;17.10;99.90
39503;DHT22;26970;49.900;10.774;2022-10-30T10:25:29;17.20;99.90
39503;DHT22;26970;49.900;10.774;2022-10-30T10:30:59;17.50;99.90
39503;DHT22;26970;49.900;10.774;2022-10-30T10:34:28;17.40;99.90
39503;DHT22;26970;49.900;10.774;2022-10-30T10:45:16;17.70;99.90
39503;DHT22;26970;49.900;10.774;2022-10-30T10:48:10;17.60;99.90
39503;DHT22;26970;49.900;10.774;2022-10-30T10:51:09;17.70;99.90
39503;DHT22;26970;49.900;10.774;2022-10-30T10:53:47;17.80;99.90
39503;DHT22;26970;49.900;10.774;2022-10-30T10:56:15;17.80;99.90
39503;DHT22;26970;49.900;10.774;2022-10-30T10:58:52;17.90;99.90
39503;DHT22;26970;49.900;10.774;2022-10-30T11:01:30;17.90;99.90
39503;DHT22;26970;49.900;10.774;2022-10-30T11:04:00;18.60;99.90
39503;DHT22;26970;49.900;10.774;2022-10-30T11:06:30;19.20;99.90
39503;DHT22;26970;49.900;10.774;2022-10-30T11:09:19;18.90;99.90
39503;DHT22;26970;49.900;10.774;2022-10-30T11:11:46;18.10;99.90
39503;DHT22;26970;49.900;10.774;2022-10-30T11:16:53;18.20;99.90
39503;DHT22;26970;49.900;10.774;2022-10-30T11:19:23;18.20;99.90
39503;DHT22;26970;49.900;10.774;2022-10-30T11:21:51;18.30;99.90
39503;DHT22;26970;49.900;10.774;2022-10-30T11:24:34;19.40;99.90
39503;DHT22;26970;49.900;10.774;2022-10-30T11:27:27;18.40;99.90
39503;DHT22;26970;49.900;10.774;2022-10-30T11:30:00;18.40;99.90
39503;DHT22;26970;49.900;10.774;2022-10-30T11:32:28;18.40;99.90
39503;DHT22;26970;49.900;10.774;2022-10-30T11:35:15;19.00;99.90
39503;DHT22;26970;49.900;10.774;2022-10-30T11:37:43;18.50;99.90
39503;DHT22;26970;49.900;10.774;2022-10-30T11:42:39;18.70;99.90
39503;DHT22;26970;49.900;10.774;2022-10-30T11:45:15;19.40;99.90
39503;DHT22;26970;49.900;10.774;2022-10-30T11:47:42;18.70;99.90
39503;DHT22;26970;49.900;10.774;2022-10-30T11:50:28;18.70;99.90
39503;DHT22;26970;49.900;10.774;2022-10-30T11:52:59;18.70;99.90
39503;DHT22;26970;49.900;10.774;2022-10-30T11:55:38;18.80;99.90
39503;DHT22;26970;49.900;10.774;2022-10-30T11:58:05;18.90;99.90
39503;DHT22;26970;49.900;10.774;2022-10-30T12:00:35;18.90;99.90
39503;DHT22;26970;49.900;10.774;2022-10-30T12:03:02;19.00;99.90
39503;DHT22;26970;49.900;10.774;2022-10-30T12:05:39;19.00;99.90
39503;DHT22;26970;49.900;10.774;2022-10-30T12:13:38;19.20;99.90
39503;DHT22;26970;49.900;10.774;2022-10-30T12:16:15;19.20;99.90
39503;DHT22;26970;49.900;10.774;2022-10-30T12:19:10;19.30;99.90
39503;DHT22;26970;49.900;10.774;2022-10-30T12:21:49;19.40;99.90
39503;DHT22;26970;49.900;10.774;2022-10-30T12:24:21;19.40;99.90
39503;DHT22;26970;49.900;10.774;2022-10-30T12:26:51;20.10;99.90
39503;DHT22;26970;49.900;10.774;2022-10-30T12:29:21;19.40;99.90
39503;DHT22;26970;49.900;10.774;2022-10-30T12:32:01;20.40;99.90
39503;DHT22;26970;49.900;10.774;2022-10-30T12:34:43;19.30;99.90
39503;DHT22;26970;49.900;10.774;2022-10-30T12:37:23;19.30;99.90
39503;DHT22;26970;49.900;10.774;2022-10-30T12:42:24;19.50;99.90
39503;DHT22;26970;49.900;10.774;2022-10-30T12:45:02;19.50;99.90
39503;DHT22;26970;49.900;10.774;2022-10-30T12:47:55;19.60;99.90
39503;DHT22;26970;49.900;10.774;2022-10-30T12:50:34;19.60;99.90
39503;DHT22;26970;49.900;10.774;2022-10-30T12:53:27;19.60;99.90
39503;DHT22;26970;49.900;10.774;2022-10-30T12:56:11;19.60;99.90
39503;DHT22;26970;49.900;10.774;2022-10-30T12:58:43;19.60;99.90
39503;DHT22;26970;49.900;10.774;2022-10-30T13:01:57;19.70;99.90
39503;DHT22;26970;49.900;10.774;2022-10-30T13:04:31;19.60;99.90
39503;DHT22;26970;49.900;10.774;2022-10-30T13:07:28;19.60;99.90
39503;DHT22;26970;49.900;10.774;2022-10-30T13:12:51;19.70;99.90
39503;DHT22;26970;49.900;10.774;2022-10-30T13:16:11;20.10;99.90
39503;DHT22;26970;49.900;10.774;2022-10-30T13:18:21;19.70;99.90
39503;DHT22;26970;49.900;10.774;2022-10-30T13:21:00;19.70;99.90
39503;DHT22;26970;49.900;10.774;2022-10-30T13:23:48;19.90;99.90
39503;DHT22;26970;49.900;10.774;2022-10-30T13:29:30;19.70;99.90
39503;DHT22;26970;49.900;10.774;2022-10-30T13:37:40;19.50;99.90
39503;DHT22;26970;49.900;10.774;2022-10-30T13:45:46;19.70;99.90
39503;DHT22;26970;49.900;10.774;2022-10-30T13:48:33;19.70;99.90
39503;DHT22;26970;49.900;10.774;2022-10-30T13:53:48;19.80;99.90
39503;DHT22;26970;49.900;10.774;2022-10-30T13:56:18;19.90;99.90
39503;DHT22;26970;49.900;10.774;2022-10-30T13:59:00;20.00;99.90
39503;DHT22;26970;49.900;10.774;2022-10-30T14:01:41;19.90;99.90
39503;DHT22;26970;49.900;10.774;2022-10-30T14:07:30;19.80;99.90
39503;DHT22;26970;49.900;10.774;2022-10-30T14:10:06;19.70;99.90
39503;DHT22;26970;49.900;10.774;2022-10-30T14:15:32;19.60;99.90
39503;DHT22;26970;49.900;10.774;2022-10-30T14:20:44;19.90;99.90
39503;DHT22;26970;49.900;10.774;2022-10-30T14:31:05;19.60;99.90
39503;DHT22;26970;49.900;10.774;2022-10-30T14:36:46;19.60;99.90
39503;DHT22;26970;49.900;10.774;2022-10-30T14:44:33;19.50;99.90
39503;DHT22;26970;49.900;10.774;2022-10-30T14:50:14;19.40;99.90
39503;DHT22;26970;49.900;10.774;2022-10-30T14:55:35;19.40;99.90
39503;DHT22;26970;49.900;10.774;2022-10-30T15:00:37;19.20;99.90
39503;DHT22;26970;49.900;10.774;2022-10-30T15:11:30;18.80;99.90
39503;DHT22;26970;49.900;10.774;2022-10-30T15:14:01;18.80;99.90
39503;DHT22;26970;49.900;10.774;2022-10-30T15:16:38;18.70;99.90
39503;DHT22;26970;49.900;10.774;2022-10-30T15:19:07;18.60;99.90
39503;DHT22;26970;49.900;10.774;2022-10-30T15:21:44;18.50;99.90
39503;DHT22;26970;49.900;10.774;2022-10-30T15:24:14;19.20;99.90
39503;DHT22;26970;49.900;10.774;2022-10-30T15:26:44;18.30;99.90
39503;DHT22;26970;49.900;10.774;2022-10-30T15:29:20;18.30;99.90
39503;DHT22;26970;49.900;10.774;2022-10-30T15:31:58;18.30;99.90
39503;DHT22;26970;49.900;10.774;2022-10-30T15:34:26;18.60;99.90
39503;DHT22;26970;49.900;10.774;2022-10-30T15:36:52;18.40;99.90
39503;DHT22;26970;49.900;10.774;2022-10-30T15:39:18;19.10;99.90
39503;DHT22;26970;49.900;10.774;2022-10-30T15:41:49;18.10;99.90
39503;DHT22;26970;49.900;10.774;2022-10-30T15:44:36;18.10;99.90
39503;DHT22;26970;49.900;10.774;2022-10-30T15:47:04;18.10;99.90
39503;DHT22;26970;49.900;10.774;2022-10-30T15:49:37;17.90;99.90
39503;DHT22;26970;49.900;10.774;2022-10-30T15:52:17;17.90;99.90
39503;DHT22;26970;49.900;10.774;2022-10-30T15:54:45;17.80;99.90
39503;DHT22;26970;49.900;10.774;2022-10-30T15:57:29;17.70;99.90
39503;DHT22;26970;49.900;10.774;2022-10-30T15:59:58;17.60;99.90
39503;DHT22;26970;49.900;10.774;2022-10-30T16:02:25;17.60;99.90
39503;DHT22;26970;49.900;10.774;2022-10-30T16:04:53;17.80;99.90
39503;DHT22;26970;49.900;10.774;2022-10-30T16:07:22;17.30;99.90
39503;DHT22;26970;49.900;10.774;2022-10-30T16:09:55;17.80;99.90
39503;DHT22;26970;49.900;10.774;2022-10-30T16:12:25;17.30;99.90
39503;DHT22;26970;49.900;10.774;2022-10-30T16:14:52;17.90;99.90
39503;DHT22;26970;49.900;10.774;2022-10-30T16:17:18;17.90;99.90
39503;DHT22;26970;49.900;10.774;2022-10-30T16:19:47;18.10;99.90
39503;DHT22;26970;49.900;10.774;2022-10-30T16:22:21;16.90;99.90
39503;DHT22;26970;49.900;10.774;2022-10-30T16:24:48;17.00;99.90
39503;DHT22;26970;49.900;10.774;2022-10-30T16:27:19;17.00;99.90
39503;DHT22;26970;49.900;10.774;2022-10-30T16:29:47;17.00;99.90
39503;DHT22;26970;49.900;10.774;2022-10-30T16:32:15;17.00;99.90
39503;DHT22;26970;49.900;10.774;2022-10-30T16:34:42;17.00;99.90
39503;DHT22;26970;49.900;10.774;2022-10-30T16:37:19;17.20;99.90
39503;DHT22;26970;49.900;10.774;2022-10-30T16:39:48;17.10;99.90
39503;DHT22;26970;49.900;10.774;2022-10-30T16:42:23;17.30;99.90
39503;DHT22;26970;49.900;10.774;2022-10-30T16:44:49;17.10;99.90
39503;DHT22;26970;49.900;10.774;2022-10-30T16:50:05;16.90;99.90
39503;DHT22;26970;49.900;10.774;2022-10-30T16:52:33;16.80;99.90
39503;DHT22;26970;49.900;10.774;2022-10-30T16:55:12;16.80;99.90
39503;DHT22;26970;49.900;10.774;2022-10-30T16:57:44;16.70;99.90
39503;DHT22;26970;49.900;10.774;2022-10-30T17:00:25;17.20;99.90
39503;DHT22;26970;49.900;10.774;2022-10-30T17:02:52;16.60;99.90
39503;DHT22;26970;49.900;10.774;2022-10-30T17:05:30;16.60;99.90
39503;DHT22;26970;49.900;10.774;2022-10-30T17:08:04;16.60;99.90
39503;DHT22;26970;49.900;10.774;2022-10-30T17:10:31;16.60;99.90
39503;DHT22;26970;49.900;10.774;2022-10-30T17:13:35;16.60;99.90
39503;DHT22;26970;49.900;10.774;2022-10-30T17:16:34;16.70;99.90
39503;DHT22;26970;49.900;10.774;2022-10-30T17:21:49;17.20;99.90
39503;DHT22;26970;49.900;10.774;2022-10-30T17:24:22;16.80;99.90
39503;DHT22;26970;49.900;10.774;2022-10-30T17:26:54;16.80;99.90
39503;DHT22;26970;49.900;10.774;2022-10-30T17:29:50;17.50;99.90
39503;DHT22;26970;49.900;10.774;2022-10-30T17:32:27;17.40;99.90
39503;DHT22;26970;49.900;10.774;2022-10-30T17:34:57;16.80;99.90
39503;DHT22;26970;49.900;10.774;2022-10-30T17:37:25;17.50;99.90
39503;DHT22;26970;49.900;10.774;2022-10-30T17:39:50;16.70;99.90
39503;DHT22;26970;49.900;10.774;2022-10-30T17:42:18;16.60;99.90
39503;DHT22;26970;49.900;10.774;2022-10-30T17:44:44;16.80;99.90
39503;DHT22;26970;49.900;10.774;2022-10-30T17:47:18;16.60;99.90
39503;DHT22;26970;49.900;10.774;2022-10-30T17:49:44;16.40;99.90